| time (UTC) | temp F | wind direction | speed MPH | gust MPH | rain 1hr in | rain 24hr in | rain mn in | humidity % | barometer mb |
| 20260903234557 | 66 | 273 | 0.0 | 0.0 | 0.10 | 0.27 | 0.27 | 3 | 1012.1 |
| 20260903233052 | 67 | 281 | 0.0 | 0.0 | 0.06 | 0.23 | 0.23 | 3 | 1012.2 |
| 20260903231531 | 69 | 247 | 0.0 | 0.0 | 0.02 | 0.19 | 0.19 | 3 | 1012.2 |
| 20260903230030 | 69 | 176 | 0.0 | 0.0 | 0.01 | 0.18 | 0.18 | 3 | 1012.2 |
| 20260903224513 | 69 | 211 | 0.0 | 0.0 | 0.00 | 0.17 | 0.17 | 3 | 1012.3 |
| 20260903223100 | 69 | 212 | 0.0 | 0.0 | 0.00 | 0.17 | 0.17 | 3 | 1012.5 |
| 20260903221539 | 69 | 149 | 0.0 | 2.0 | 0.00 | 0.17 | 0.17 | 31 | 1012.5 |
| 20260903220038 | 70 | 273 | 0.0 | 0.0 | 0.00 | 0.17 | 0.17 | 47 | 1012.3 |
| 20260903214514 | 71 | 256 | 0.0 | 0.0 | 0.00 | 0.17 | 0.17 | 49 | 1012.2 |
| 20260903213009 | 70 | 276 | 0.0 | 0.0 | 0.00 | 0.17 | 0.17 | 48 | 1012.2 |
| 20260903211559 | 71 | 285 | 0.0 | 0.0 | 0.00 | 0.17 | 0.17 | 44 | 1012.2 |
| 20260903210053 | 72 | 225 | 0.0 | 1.0 | 0.00 | 0.17 | 0.17 | 32 | 1012.3 |
| 20260903204545 | 71 | 166 | 0.0 | 4.0 | 0.00 | 0.17 | 0.17 | 27 | 1012.3 |
| 20260903203042 | 73 | 233 | 0.0 | 4.0 | 0.00 | 0.17 | 0.17 | 3 | 1012.4 |
| 20260903201536 | 73 | 174 | 0.0 | 5.0 | 0.00 | 0.17 | 0.17 | 3 | 1012.6 |
| 20260903200031 | 72 | 190 | 0.0 | 3.0 | 0.00 | 0.17 | 0.17 | 3 | 1012.7 |
| 20260903194526 | 68 | 219 | 0.0 | 5.0 | 0.00 | 0.17 | 0.17 | 3 | 1012.9 |
| 20260903193024 | 66 | 233 | 0.0 | 1.0 | 0.00 | 0.17 | 0.17 | 3 | 1013.1 |
| 20260903191508 | 65 | 208 | 0.0 | 2.0 | 0.02 | 0.17 | 0.17 | 3 | 1013.3 |
| 20260903190005 | 64 | 210 | 0.0 | 3.0 | 0.04 | 0.17 | 0.17 | 3 | 1013.4 |
| 20260903184555 | 64 | 281 | 0.0 | 1.0 | 0.09 | 0.17 | 0.17 | 3 | 1013.4 |
| 20260903183045 | 64 | 247 | 0.0 | 1.0 | 0.11 | 0.17 | 0.17 | 3 | 1013.4 |
| 20260903181522 | 64 | 176 | 0.0 | 2.0 | 0.10 | 0.15 | 0.15 | 3 | 1013.5 |
| 20260903180018 | 64 | 233 | 0.0 | 2.0 | 0.09 | 0.13 | 0.13 | 3 | 1013.3 |
| 20260903174555 | 64 | 127 | 0.0 | 2.0 | 0.05 | 0.08 | 0.08 | 3 | 1013.2 |
| 20260903173051 | 64 | 134 | 0.0 | 3.0 | 0.03 | 0.06 | 0.06 | 3 | 1013.2 |
| 20260903171533 | 64 | 124 | 0.0 | 3.0 | 0.03 | 0.05 | 0.05 | 3 | 1013.2 |
| 20260903170037 | 64 | 169 | 0.0 | 4.0 | 0.02 | 0.04 | 0.04 | 3 | 1013.2 |
| 20260903164512 | 64 | 243 | 0.0 | 3.0 | 0.02 | 0.03 | 0.03 | 3 | 1013.2 |
| 20260903163008 | 65 | 197 | 0.0 | 2.0 | 0.03 | 0.03 | 0.03 | 3 | 1013.2 |
| 20260903161604 | 65 | 200 | 0.0 | 1.0 | 0.02 | 0.02 | 0.02 | 3 | 1013.3 |
| 20260903160042 | 65 | 212 | 0.0 | 1.0 | 0.02 | 0.02 | 0.02 | 3 | 1013.4 |
| 20260903154538 | 66 | 200 | 0.0 | 0.0 | 0.01 | 0.03 | 0.01 | 3 | 1013.4 |
| 20260903153021 | 66 | 200 | 0.0 | 2.0 | 0.00 | 0.02 | 0.00 | 3 | 1013.6 |
| 20260903151517 | 67 | 135 | 0.0 | 0.0 | 0.00 | 0.02 | 0.00 | 3 | 1013.6 |
| 20260903150016 | 0 | 0.0 | 0.0 | 0.00 | 0.02 | 0.00 | 1013.4 | ||
| 20260903144509 | 0 | 0.0 | 0.0 | 0.00 | 0.02 | 0.00 | 1013.4 | ||
| 20260903143007 | 0 | 0.0 | 0.0 | 0.00 | 0.02 | 0.00 | 1013.2 | ||
| 20260903141600 | 0 | 0.0 | 0.0 | 0.00 | 0.02 | 0.00 | 1013.1 | ||
| 20260903140056 | 0 | 0.0 | 0.0 | 0.00 | 0.02 | 0.00 | 1013.2 | ||
| 20260903134551 | 0 | 0.0 | 0.0 | 0.00 | 0.02 | 0.00 | 1013.1 | ||
| 20260903133031 | 0 | 0.0 | 0.0 | 0.00 | 0.02 | 0.00 | 1013.2 | ||
| 20260903131527 | 0 | 0.0 | 0.0 | 0.00 | 0.02 | 0.00 | 1013.2 | ||
| 20260903130005 | 0 | 0.0 | 0.0 | 0.00 | 0.02 | 0.00 | 1013.3 | ||
| 20260903124601 | 0 | 0.0 | 0.0 | 0.00 | 0.02 | 0.00 | 1013.4 | ||
| 20260903123044 | 0 | 0.0 | 0.0 | 0.00 | 0.02 | 0.00 | 1013.6 | ||
| 20260903121537 | 0 | 0.0 | 0.0 | 0.00 | 0.02 | 0.00 | 1013.8 | ||
| 20260903120013 | 0 | 0.0 | 0.0 | 0.00 | 0.02 | 0.00 | 1013.7 | ||
| 20260903114512 | 0 | 0.0 | 0.0 | 0.00 | 0.02 | 0.00 | 1013.9 | ||
| 20260903113047 | 0 | 0.0 | 0.0 | 0.00 | 0.02 | 0.00 | 1013.9 | ||
| 20260903111543 | 0 | 0.0 | 0.0 | 0.00 | 0.02 | 0.00 | 1014.1 | ||
| 20260903110021 | 0 | 0.0 | 0.0 | 0.00 | 0.02 | 0.00 | 1014.2 | ||
| 20260903104517 | 67 | 219 | 0.0 | 0.0 | 0.00 | 0.02 | 0.00 | 3 | 1014.3 |
| 20260903103101 | 67 | 219 | 0.0 | 0.0 | 0.00 | 0.02 | 0.00 | 3 | 1014.3 |
| 20260903101600 | 66 | 219 | 0.0 | 0.0 | 0.00 | 0.02 | 0.00 | 3 | 1014.3 |
| 20260903100054 | 66 | 219 | 0.0 | 0.0 | 0.00 | 0.02 | 0.00 | 3 | 1014.5 |
| 20260903094550 | 66 | 219 | 0.0 | 0.0 | 0.00 | 0.02 | 0.00 | 3 | 1014.6 |
| 20260903093043 | 66 | 219 | 0.0 | 0.0 | 0.00 | 0.02 | 0.00 | 3 | 1014.7 |
| 20260903091539 | 66 | 219 | 0.0 | 0.0 | 0.00 | 0.02 | 0.00 | 3 | 1014.9 |
| 20260903090034 | 65 | 219 | 0.0 | 0.0 | 0.00 | 0.02 | 0.00 | 3 | 1015.1 |
| 20260903084529 | 65 | 219 | 0.0 | 0.0 | 0.00 | 0.02 | 0.00 | 3 | 1015.0 |
| 20260903083011 | 65 | 220 | 0.0 | 0.0 | 0.00 | 0.02 | 0.00 | 3 | 1015.3 |
| 20260903081508 | 65 | 219 | 0.0 | 0.0 | 0.00 | 0.02 | 0.00 | 3 | 1015.2 |
| 20260903080042 | 65 | 219 | 0.0 | 0.0 | 0.00 | 0.02 | 0.00 | 3 | 1015.2 |
| 20260903074536 | 65 | 219 | 0.0 | 0.0 | 0.00 | 0.02 | 0.00 | 3 | 1015.2 |
| 20260903073015 | 65 | 219 | 0.0 | 0.0 | 0.00 | 0.02 | 0.00 | 3 | 1015.4 |
| 20260903071510 | 65 | 208 | 0.0 | 0.0 | 0.00 | 0.02 | 0.00 | 3 | 1015.4 |
| 20260903070049 | 65 | 208 | 0.0 | 0.0 | 0.00 | 0.02 | 0.00 | 3 | 1015.5 |
| 20260903064544 | 65 | 208 | 0.0 | 0.0 | 0.00 | 0.02 | 0.02 | 3 | 1015.5 |
| 20260903063023 | 65 | 208 | 0.0 | 0.0 | 0.00 | 0.02 | 0.02 | 3 | 1015.7 |
| 20260903061523 | 65 | 217 | 0.0 | 0.0 | 0.00 | 0.02 | 0.02 | 3 | 1015.7 |
| 20260903060057 | 65 | 204 | 0.0 | 0.0 | 0.00 | 0.02 | 0.02 | 3 | 1015.7 |
| 20260903054552 | 65 | 200 | 0.0 | 0.0 | 0.00 | 0.02 | 0.02 | 3 | 1015.8 |
| 20260903053031 | 65 | 200 | 0.0 | 0.0 | 0.00 | 0.02 | 0.02 | 3 | 1015.9 |
| 20260903051526 | 65 | 200 | 0.0 | 0.0 | 0.00 | 0.02 | 0.02 | 3 | 1016.0 |
| 20260903050004 | 65 | 200 | 0.0 | 0.0 | 0.00 | 0.02 | 0.02 | 3 | 1016.1 |
| 20260903044600 | 66 | 198 | 0.0 | 0.0 | 0.00 | 0.02 | 0.02 | 3 | 1016.0 |
| 20260903043043 | 66 | 150 | 0.0 | 0.0 | 0.00 | 0.02 | 0.02 | 3 | 1016.0 |
| 20260903041535 | 67 | 215 | 0.0 | 0.0 | 0.00 | 0.02 | 0.02 | 3 | 1016.1 |
| 20260903040013 | 67 | 217 | 0.0 | 0.0 | 0.00 | 0.02 | 0.02 | 3 | 1016.0 |
| 20260903034509 | 67 | 222 | 0.0 | 0.0 | 0.00 | 0.02 | 0.02 | 3 | 1015.7 |
| 20260903033052 | 67 | 211 | 0.0 | 0.0 | 0.00 | 0.02 | 0.02 | 3 | 1015.6 |
| 20260903031551 | 67 | 224 | 0.0 | 0.0 | 0.00 | 0.02 | 0.02 | 3 | 1015.4 |
| 20260903030044 | 66 | 208 | 0.0 | 0.0 | 0.00 | 0.02 | 0.02 | 12 | 1015.3 |
| 20260903024540 | 66 | 222 | 0.0 | 1.0 | 0.00 | 0.02 | 0.02 | 31 | 1015.3 |
| 20260903023035 | 67 | 217 | 0.0 | 1.0 | 0.00 | 0.02 | 0.02 | 52 | 1015.2 |
| 20260903021530 | 68 | 218 | 0.0 | 1.0 | 0.00 | 0.02 | 0.02 | 58 | 1015.3 |
| 20260903020045 | 69 | 243 | 0.0 | 1.0 | 0.00 | 0.02 | 0.02 | 61 | 1015.2 |
| 20260903014521 | 71 | 236 | 0.0 | 0.0 | 0.00 | 0.02 | 0.02 | 60 | 1015.4 |
| 20260903013059 | 71 | 208 | 0.0 | 2.0 | 0.00 | 0.02 | 0.02 | 61 | 1015.4 |
| 20260903011603 | 71 | 285 | 0.0 | 2.0 | 0.00 | 0.02 | 0.02 | 60 | 1015.4 |
| 20260903010033 | 72 | 303 | 0.0 | 1.0 | 0.00 | 0.02 | 0.02 | 58 | 1015.3 |
| 20260903004528 | 71 | 277 | 0.0 | 6.0 | 0.00 | 0.02 | 0.02 | 60 | 1015.2 |
| 20260903003008 | 72 | 259 | 0.0 | 7.0 | 0.00 | 0.02 | 0.02 | 59 | 1015.2 |
| 20260903001503 | 73 | 276 | 0.0 | 5.0 | 0.00 | 0.02 | 0.02 | 58 | 1015.3 |
| 20260903000041 | 73 | 271 | 0.0 | 4.0 | 0.00 | 0.02 | 0.02 | 55 | 1015.3 |